Aérodrome :
LOGIN :

S'inscrire | Disclaimer

   EN    FR    IT 

 










Légende :    VFR   VFR Marginal   IFR   IFR Intensif   IFR Très Intensif
Visi : 
Plafond : 
>= 8 km
>= 3000ft
5 à 8 km
1000 à 3000 ft
1500m à 5 km
500 à 1000 ft
800 à 1500m
200 à 500 ft
< 800m
< 200 ft
Symboles :   Orages  Brouillard  Fortes neiges  Fortes précipitations  Vent > 20 kt
SIGMETs :   Divers  Orages  Givrage  Turbulence  Onde Orograph.  Cendres Volcan.







- Altitude de l'aérodrome : 138 ft
- Code IATA : BIO


LEBB - Bilbao

DERNIER METAR :
  • 152200Z 33009KT 300V360 9999 FEW037 SCT045 BKN055 15/13 Q1018 NOSIG

METARs EXPIRÉS :
  • 152130Z 30009KT 250V330 9999 FEW040 SCT050 BKN060 17/11 Q1018 NOSIG
  • 152100Z 24014G24KT 190V280 9999 FEW040 SCT060 17/09 Q1018 NOSIG
  • 152030Z 23007G17KT 160V320 9999 FEW040 17/09 Q1017 NOSIG
  • 152000Z 21010KT 150V270 9999 FEW040 18/09 Q1017 NOSIG
  • 151930Z 21008KT 160V280 9999 FEW040 18/09 Q1016 NOSIG

TAF TAF LEBB
Valide du 15 à 18h jusqu'au 16 à 18h UTC


151700Z 1518/1618 19009KT 9999 SCT040 TX17/1518Z TN06/1606Z
TEMPO 1518/1521 20015G30KT
TEMPO 1522/1610 29010KT 3000 RA BKN010
TEMPO 1615/1618 30014KT
Pas de NOTAMs connus pour ce terrain.



MET'MAP, la Météo Aéronautique d'un coup d'oeil ! - Copyright ORBIFLY Décembre 2007 - Disclaimer

ORBIFLY MET'MAP TEAM :

Programmation & Développement : Alexandra Zaïnal
Conception & Développement : Baudouin d'Aumeries
Co-Programmation & Développement : Marc-Olivier Méhu
Soutien technique & logistique : Manuel Goepfert

Contact : metmap@orbifly.com




SOURCES & CREDITS :

   NOAA